CheckWX is a tool to help pilots better visualize weather data.  It is not intended as a substitute for an official pre-flight weather briefing.

05:41:40 UTC

KHKA METAR
Blytheville Municipal Airport
Blytheville, Arkansas, USA
Current

49 mins ago

KHKA 180453Z AUTO 15005KT 10SM CLR 26/21 A2993 RMK AO2 SLP133 T02560211 $
Observed
Aug-18 @ 04:53 UTC
Wind
  • 150° at 5 KTS
Visibility
10 SM
Flight Rules
VFR
Cloud Levels
  • Clear skies
Temperature
26°C / 79°F
Dewpoint
21°C / 70°F
Humidity
74%
Altimeter
29.93" Hg
Pressure
1013.52 hPa
Previous

2 hours ago

KHKA 180353Z AUTO 17005KT 10SM CLR 27/22 A2993 RMK AO2 SLP133 T02670217 $
Observed
Aug-18 @ 03:53 UTC
Wind
  • 170° at 5 KTS
Visibility
10 SM
Flight Rules
VFR
Cloud Levels
  • Clear skies
Temperature
27°C / 81°F
Dewpoint
22°C / 72°F
Heat Index
29°C / 85°F
Humidity
74%
Altimeter
29.93" Hg
Pressure
1013.52 hPa
Previous

3 hours ago

KHKA 180253Z AUTO 19004KT 10SM CLR 27/22 A2993 RMK AO2 SLP131 T02720217 53009 $
Observed
Aug-18 @ 02:53 UTC
Wind
  • 190° at 4 KTS
Visibility
10 SM
Flight Rules
VFR
Cloud Levels
  • Clear skies
Temperature
27°C / 81°F
Dewpoint
22°C / 72°F
Heat Index
29°C / 85°F
Humidity
74%
Altimeter
29.93" Hg
Pressure
1013.52 hPa